createdAt,value
2019-05-19T00:00:33.755Z,0
2019-05-19T00:01:35.155Z,0
2019-05-19T00:02:40.262Z,0
2019-05-19T00:03:38.002Z,0
2019-05-19T00:04:39.518Z,0
2019-05-19T00:05:40.919Z,0
2019-05-19T00:06:42.400Z,0
2019-05-19T00:07:43.804Z,0
2019-05-19T00:08:45.280Z,0
2019-05-19T00:09:46.691Z,0
2019-05-19T00:10:48.090Z,0
2019-05-19T00:11:49.600Z,0
2019-05-19T00:12:51.384Z,0
2019-05-19T00:13:52.783Z,0
2019-05-19T00:14:54.362Z,0
2019-05-19T00:15:55.760Z,0
2019-05-19T00:16:57.159Z,0
2019-05-19T00:17:58.655Z,0
2019-05-19T00:19:00.057Z,0
2019-05-19T00:20:01.537Z,0
2019-05-19T00:21:02.939Z,0
2019-05-19T00:22:04.415Z,0
2019-05-19T00:23:05.809Z,0
2019-05-19T00:24:07.301Z,0
2019-05-19T00:25:08.699Z,0
2019-05-19T00:26:10.114Z,0
2019-05-19T00:27:11.628Z,0
2019-05-19T00:28:13.024Z,0
2019-05-19T00:29:14.435Z,0
2019-05-19T00:30:16.295Z,0
2019-05-19T00:31:17.749Z,0
2019-05-19T00:32:19.139Z,0
2019-05-19T00:33:20.670Z,0
2019-05-19T00:34:22.073Z,0
2019-05-19T00:35:23.505Z,0
2019-05-19T00:36:25.019Z,0
2019-05-19T00:37:26.408Z,0
2019-05-19T00:38:27.877Z,0
2019-05-19T00:39:29.287Z,0
2019-05-19T00:40:30.756Z,0
2019-05-19T00:41:32.147Z,0
2019-05-19T00:42:33.560Z,0
2019-05-19T00:43:35.083Z,0
2019-05-19T00:44:36.479Z,0
2019-05-19T00:45:37.877Z,0
2019-05-19T00:46:39.412Z,0
2019-05-19T00:47:40.800Z,0
2019-05-19T00:48:42.200Z,0
2019-05-19T00:49:43.723Z,0
2019-05-19T00:50:45.121Z,0
2019-05-19T00:51:46.517Z,0
2019-05-19T00:52:48.041Z,0
2019-05-19T00:53:49.437Z,0
2019-05-19T00:54:50.924Z,0
2019-05-19T00:55:52.323Z,0
2019-05-19T00:56:53.828Z,0
2019-05-19T00:57:55.226Z,0
2019-05-19T00:58:57.005Z,0
2019-05-19T00:59:58.411Z,0
2019-05-19T01:00:59.983Z,0
2019-05-19T01:02:01.412Z,0
2019-05-19T01:03:02.888Z,0
2019-05-19T01:04:04.269Z,0
2019-05-19T01:05:06.029Z,0
2019-05-19T01:06:07.423Z,0
2019-05-19T01:07:08.824Z,0
2019-05-19T01:08:10.462Z,0
2019-05-19T01:09:11.885Z,0
2019-05-19T01:10:13.264Z,0
2019-05-19T01:11:14.784Z,0
2019-05-19T01:12:16.192Z,0
2019-05-19T01:13:17.588Z,0
2019-05-19T01:14:19.489Z,0
2019-05-19T01:15:21.270Z,0
2019-05-19T01:16:22.673Z,0
2019-05-19T01:17:24.250Z,0
2019-05-19T01:18:25.750Z,0
2019-05-19T01:19:27.176Z,0
2019-05-19T01:20:28.578Z,0
2019-05-19T01:21:30.188Z,0
2019-05-19T01:22:31.586Z,0
2019-05-19T01:23:32.986Z,0
2019-05-19T01:24:34.555Z,0
2019-05-19T01:25:36.333Z,0
2019-05-19T01:26:37.742Z,0
2019-05-19T01:27:39.266Z,0
2019-05-19T01:28:41.051Z,0
2019-05-19T01:29:42.454Z,0
2019-05-19T01:30:44.045Z,0
2019-05-19T01:31:45.450Z,0
2019-05-19T01:32:46.853Z,0
2019-05-19T01:33:48.319Z,0
2019-05-19T01:34:49.712Z,0
2019-05-19T01:35:51.266Z,0
2019-05-19T01:36:52.650Z,0
2019-05-19T01:37:54.046Z,0
2019-05-19T01:38:55.524Z,0
2019-05-19T01:39:56.926Z,0
2019-05-19T01:40:58.325Z,0
2019-05-19T01:41:59.844Z,0
2019-05-19T01:43:01.282Z,0
2019-05-19T01:44:02.723Z,0
2019-05-19T01:45:04.119Z,0
2019-05-19T01:46:05.604Z,0
2019-05-19T01:47:07.001Z,0
2019-05-19T01:48:08.782Z,0
2019-05-19T01:49:10.378Z,0
2019-05-19T01:50:18.933Z,0
2019-05-19T01:51:13.605Z,0
2019-05-19T01:52:15.467Z,0
2019-05-19T01:53:16.902Z,0
2019-05-19T01:54:18.644Z,0
2019-05-19T01:55:20.207Z,0
2019-05-19T01:56:21.988Z,0
2019-05-19T01:57:23.387Z,0
2019-05-19T01:58:24.952Z,0
2019-05-19T01:59:26.347Z,0
2019-05-19T02:00:27.820Z,0
2019-05-19T02:01:29.267Z,0
2019-05-19T02:02:31.021Z,0
2019-05-19T02:03:32.550Z,0
2019-05-19T02:04:33.947Z,0
2019-05-19T02:05:35.342Z,0
2019-05-19T02:06:37.249Z,0
2019-05-19T02:07:38.645Z,0
2019-05-19T02:08:40.046Z,0
2019-05-19T02:09:41.656Z,0
2019-05-19T02:10:43.042Z,0
2019-05-19T02:11:44.455Z,0
2019-05-19T02:12:46.224Z,0
2019-05-19T02:13:47.618Z,0
2019-05-19T02:14:49.243Z,0
2019-05-19T02:15:50.644Z,0
2019-05-19T02:16:52.093Z,0
2019-05-19T02:17:53.490Z,0
2019-05-19T02:18:54.888Z,0
2019-05-19T02:19:56.427Z,0
2019-05-19T02:20:57.824Z,0
2019-05-19T02:21:59.222Z,0
2019-05-19T02:23:00.748Z,0
2019-05-19T02:24:02.141Z,0
2019-05-19T02:25:03.619Z,0
2019-05-19T02:26:05.020Z,0
2019-05-19T02:27:06.500Z,0
2019-05-19T02:28:07.903Z,0
2019-05-19T02:29:09.380Z,0
2019-05-19T02:30:10.821Z,0
2019-05-19T02:31:12.261Z,0
2019-05-19T02:32:14.039Z,0
2019-05-19T02:33:16.316Z,0
2019-05-19T02:34:17.715Z,0
2019-05-19T02:35:19.251Z,0
2019-05-19T02:36:20.650Z,0
2019-05-19T02:37:22.130Z,0
2019-05-19T02:38:23.531Z,0
2019-05-19T02:39:25.028Z,0
2019-05-19T02:40:26.408Z,0
2019-05-19T02:41:27.907Z,0
2019-05-19T02:42:29.726Z,0
2019-05-19T02:43:31.114Z,0
2019-05-19T02:44:32.631Z,0
2019-05-19T02:45:34.029Z,0
2019-05-19T02:46:35.426Z,0
2019-05-19T02:47:37.005Z,0
2019-05-19T02:48:38.407Z,0
2019-05-19T02:49:39.802Z,0
2019-05-19T02:50:51.777Z,0
2019-05-19T02:51:42.621Z,0
2019-05-19T02:52:44.070Z,0
2019-05-19T02:53:45.592Z,0
2019-05-19T02:54:46.988Z,0
2019-05-19T02:55:48.386Z,0
2019-05-19T02:56:49.909Z,0
2019-05-19T02:57:51.315Z,0
2019-05-19T02:58:52.709Z,0
2019-05-19T02:59:54.233Z,0
2019-05-19T03:00:55.628Z,0
2019-05-19T03:01:57.023Z,0
2019-05-19T03:02:58.552Z,0
2019-05-19T03:03:59.955Z,0
2019-05-19T03:05:01.437Z,0
2019-05-19T03:06:02.840Z,0
2019-05-19T03:07:04.312Z,0
2019-05-19T03:08:06.095Z,0
2019-05-19T03:09:07.660Z,0
2019-05-19T03:10:09.074Z,0
2019-05-19T03:11:11.080Z,0
2019-05-19T03:12:12.477Z,0
2019-05-19T03:13:13.978Z,0
2019-05-19T03:14:15.383Z,0
2019-05-19T03:15:16.865Z,0
2019-05-19T03:16:18.285Z,0
2019-05-19T03:17:19.746Z,0
2019-05-19T03:18:21.522Z,0
2019-05-19T03:19:23.350Z,0
2019-05-19T03:20:24.906Z,0
2019-05-19T03:21:26.308Z,0
2019-05-19T03:22:27.706Z,0
2019-05-19T03:23:29.188Z,0
2019-05-19T03:24:30.578Z,0
2019-05-19T03:25:31.988Z,0
2019-05-19T03:26:33.526Z,0
2019-05-19T03:27:34.929Z,0
2019-05-19T03:28:36.331Z,0
2019-05-19T03:29:37.853Z,0
2019-05-19T03:30:39.249Z,0
2019-05-19T03:31:40.669Z,0
2019-05-19T03:32:42.174Z,0
2019-05-19T03:33:43.571Z,0
2019-05-19T03:34:44.981Z,0
2019-05-19T03:35:46.499Z,0
2019-05-19T03:36:47.898Z,0
2019-05-19T03:37:49.290Z,0
2019-05-19T03:38:50.813Z,5
2019-05-19T03:39:52.217Z,5
2019-05-19T03:40:54.075Z,5
2019-05-19T03:41:55.515Z,5
2019-05-19T03:42:57.369Z,5
2019-05-19T03:43:58.763Z,5
2019-05-19T03:45:00.280Z,5
2019-05-19T03:46:02.068Z,5
2019-05-19T03:47:04.325Z,5
2019-05-19T03:48:05.758Z,5
2019-05-19T03:49:07.273Z,5
2019-05-19T03:50:08.672Z,5
2019-05-19T03:51:27.241Z,5
2019-05-19T03:52:11.894Z,5
2019-05-19T03:53:13.440Z,10
2019-05-19T03:54:14.844Z,10
2019-05-19T03:55:16.331Z,10
2019-05-19T03:56:17.723Z,10
2019-05-19T03:57:19.206Z,10
2019-05-19T03:58:20.606Z,10
2019-05-19T03:59:22.008Z,10
2019-05-19T04:00:23.524Z,10
2019-05-19T04:01:24.927Z,10
2019-05-19T04:02:26.711Z,15
2019-05-19T04:03:28.254Z,15
2019-05-19T04:04:29.685Z,15
2019-05-19T04:05:31.119Z,15
2019-05-19T04:06:32.575Z,15
2019-05-19T04:07:33.987Z,20
2019-05-19T04:08:35.385Z,20
2019-05-19T04:09:36.982Z,20
2019-05-19T04:10:38.402Z,20
2019-05-19T04:11:40.187Z,25
2019-05-19T04:12:41.591Z,25
2019-05-19T04:13:43.075Z,25
2019-05-19T04:14:44.471Z,25
2019-05-19T04:15:45.955Z,30
2019-05-19T04:16:47.730Z,30
2019-05-19T04:17:49.240Z,30
2019-05-19T04:18:50.640Z,30
2019-05-19T04:19:52.038Z,35
2019-05-19T04:20:54.585Z,35
2019-05-19T04:21:55.982Z,35
2019-05-19T04:22:57.453Z,35
2019-05-19T04:23:58.914Z,35
2019-05-19T04:25:00.321Z,40
2019-05-19T04:26:01.715Z,40
2019-05-19T04:27:03.239Z,40
2019-05-19T04:28:04.626Z,45
2019-05-19T04:29:06.029Z,45
2019-05-19T04:30:07.572Z,45
2019-05-19T04:31:08.951Z,45
2019-05-19T04:32:10.443Z,50
2019-05-19T04:33:11.836Z,50
2019-05-19T04:34:13.312Z,50
2019-05-19T04:35:14.715Z,55
2019-05-19T04:36:16.196Z,55
2019-05-19T04:37:17.623Z,55
2019-05-19T04:38:19.077Z,60
2019-05-19T04:39:20.478Z,60
2019-05-19T04:40:21.958Z,55
2019-05-19T04:41:23.737Z,55
2019-05-19T04:42:25.273Z,55
2019-05-19T04:43:26.679Z,55
2019-05-19T04:44:28.216Z,55
2019-05-19T04:45:29.510Z,55
2019-05-19T04:46:31.008Z,55
2019-05-19T04:47:32.411Z,55
2019-05-19T04:48:34.268Z,55
2019-05-19T04:49:35.671Z,55
2019-05-19T04:50:37.072Z,55
2019-05-19T04:51:38.660Z,60
2019-05-19T04:52:40.440Z,65
2019-05-19T04:53:41.856Z,65
2019-05-19T04:54:43.351Z,70
2019-05-19T04:55:44.817Z,75
2019-05-19T04:56:46.115Z,75
2019-05-19T04:57:47.679Z,80
2019-05-19T04:58:49.097Z,80
2019-05-19T04:59:50.481Z,85
2019-05-19T05:00:51.998Z,90
2019-05-19T05:01:53.403Z,90
2019-05-19T05:02:54.892Z,90
2019-05-19T05:03:56.292Z,95
2019-05-19T05:04:57.706Z,95
2019-05-19T05:05:59.190Z,95
2019-05-19T05:07:00.557Z,95
2019-05-19T05:08:01.961Z,95
2019-05-19T05:09:03.515Z,95
2019-05-19T05:10:04.923Z,100
2019-05-19T05:11:06.322Z,100
2019-05-19T05:12:07.840Z,105
2019-05-19T05:13:09.243Z,105
2019-05-19T05:14:10.650Z,110
2019-05-19T05:15:12.170Z,110
2019-05-19T05:16:13.571Z,115
2019-05-19T05:17:15.058Z,115
2019-05-19T05:18:16.463Z,120
2019-05-19T05:19:17.928Z,120
2019-05-19T05:20:19.417Z,125
2019-05-19T05:21:21.165Z,125
2019-05-19T05:22:22.684Z,125
2019-05-19T05:23:24.457Z,120
2019-05-19T05:24:28.466Z,130
2019-05-19T05:25:27.385Z,125
2019-05-19T05:26:28.790Z,130
2019-05-19T05:27:30.267Z,125
2019-05-19T05:28:31.671Z,125
2019-05-19T05:29:33.148Z,130
2019-05-19T05:30:34.788Z,135
2019-05-19T05:31:36.260Z,140
2019-05-19T05:32:37.632Z,145
2019-05-19T05:33:39.119Z,145
2019-05-19T05:34:40.522Z,145
2019-05-19T05:35:42.868Z,145
2019-05-19T05:36:44.276Z,150
2019-05-19T05:37:45.902Z,150
2019-05-19T05:38:47.308Z,155
2019-05-19T05:39:48.784Z,160
2019-05-19T05:40:50.191Z,155
2019-05-19T05:41:51.593Z,160
2019-05-19T05:42:53.209Z,170
2019-05-19T05:43:54.616Z,170
2019-05-19T05:44:56.022Z,175
2019-05-19T05:45:57.632Z,175
2019-05-19T05:46:59.062Z,180
2019-05-19T05:48:00.569Z,180
2019-05-19T05:49:01.972Z,180
2019-05-19T05:50:03.595Z,180
2019-05-19T05:51:05.005Z,180
2019-05-19T05:52:06.410Z,180
2019-05-19T05:53:07.912Z,180
2019-05-19T05:54:09.320Z,185
2019-05-19T05:55:10.755Z,180
2019-05-19T05:56:12.235Z,180
2019-05-19T05:57:13.642Z,185
2019-05-19T05:58:15.480Z,185
2019-05-19T05:59:16.972Z,185
2019-05-19T06:00:18.371Z,195
2019-05-19T06:01:19.788Z,200
2019-05-19T06:02:21.290Z,205
2019-05-19T06:03:22.696Z,215
2019-05-19T06:04:24.101Z,215
2019-05-19T06:05:25.607Z,220
2019-05-19T06:06:27.017Z,220
2019-05-19T06:07:28.427Z,225
2019-05-19T06:08:29.934Z,235
2019-05-19T06:09:31.379Z,240
2019-05-19T06:10:32.791Z,245
2019-05-19T06:11:34.255Z,250
2019-05-19T06:12:36.042Z,255
2019-05-19T06:13:37.452Z,260
2019-05-19T06:14:39.039Z,270
2019-05-19T06:15:40.824Z,270
2019-05-19T06:16:42.238Z,265
2019-05-19T06:17:43.716Z,260
2019-05-19T06:18:45.125Z,265
2019-05-19T06:19:46.541Z,270
2019-05-19T06:20:48.034Z,280
2019-05-19T06:21:49.451Z,295
2019-05-19T06:22:56.484Z,315
2019-05-19T06:23:52.357Z,320
2019-05-19T06:24:53.772Z,315
2019-05-19T06:25:55.199Z,335
2019-05-19T06:26:56.683Z,425
2019-05-19T06:27:58.124Z,460
2019-05-19T06:28:59.883Z,365
2019-05-19T06:30:01.411Z,365
2019-05-19T06:31:02.832Z,380
2019-05-19T06:32:04.234Z,425
2019-05-19T06:33:06.118Z,425
2019-05-19T06:34:07.520Z,385
2019-05-19T06:35:08.926Z,415
2019-05-19T06:36:10.466Z,415
2019-05-19T06:37:11.867Z,380
2019-05-19T06:38:13.275Z,360
2019-05-19T06:39:15.176Z,445
2019-05-19T06:40:16.597Z,640
2019-05-19T06:41:17.995Z,690
2019-05-19T06:42:19.538Z,745
2019-05-19T06:43:20.945Z,675
2019-05-19T06:44:22.356Z,690
2019-05-19T06:45:23.920Z,665
2019-05-19T06:46:25.240Z,460
2019-05-19T06:47:26.683Z,355
2019-05-19T06:48:28.162Z,325
2019-05-19T06:49:29.566Z,305
2019-05-19T06:50:30.975Z,290
2019-05-19T06:51:32.492Z,295
2019-05-19T06:52:33.923Z,305
2019-05-19T06:53:35.332Z,345
2019-05-19T06:54:36.801Z,350
2019-05-19T06:55:38.216Z,355
2019-05-19T06:56:39.628Z,340
2019-05-19T06:57:41.884Z,340
2019-05-19T06:58:43.295Z,305
2019-05-19T06:59:44.821Z,290
2019-05-19T07:00:46.265Z,280
2019-05-19T07:01:47.697Z,285
2019-05-19T07:02:49.103Z,310
2019-05-19T07:03:51.365Z,320
2019-05-19T07:04:52.774Z,335
2019-05-19T07:05:54.286Z,325
2019-05-19T07:06:55.753Z,330
2019-05-19T07:07:57.373Z,340
2019-05-19T07:08:58.801Z,355
2019-05-19T07:10:00.265Z,360
2019-05-19T07:11:01.674Z,365
2019-05-19T07:12:03.084Z,365
2019-05-19T07:13:04.575Z,370
2019-05-19T07:14:05.984Z,365
2019-05-19T07:15:07.429Z,370
2019-05-19T07:16:08.895Z,385
2019-05-19T07:17:10.303Z,395
2019-05-19T07:18:11.718Z,360
2019-05-19T07:19:13.596Z,365
2019-05-19T07:20:15.364Z,400
2019-05-19T07:21:16.769Z,385
2019-05-19T07:22:18.563Z,415
2019-05-19T07:23:27.955Z,380
2019-05-19T07:24:21.346Z,400
2019-05-19T07:25:22.888Z,520
2019-05-19T07:26:24.331Z,760
2019-05-19T07:27:25.740Z,920
2019-05-19T07:28:27.204Z,980
2019-05-19T07:29:28.612Z,990
2019-05-19T07:30:30.095Z,1055
2019-05-19T07:31:31.508Z,1085
2019-05-19T07:32:32.970Z,1115
2019-05-19T07:33:34.376Z,1090
2019-05-19T07:34:35.857Z,775
2019-05-19T07:35:37.255Z,980
2019-05-19T07:36:38.732Z,1055
2019-05-19T07:37:40.145Z,975
2019-05-19T07:38:41.614Z,915
2019-05-19T07:39:43.020Z,825
2019-05-19T07:40:44.513Z,810
2019-05-19T07:41:45.922Z,675
2019-05-19T07:42:47.360Z,580
2019-05-19T07:43:49.251Z,565
2019-05-19T07:44:51.036Z,570
2019-05-19T07:45:52.450Z,600
2019-05-19T07:46:53.952Z,610
2019-05-19T07:47:55.393Z,690
2019-05-19T07:48:56.798Z,715
2019-05-19T07:49:58.379Z,870
2019-05-19T07:50:59.810Z,1020
2019-05-19T07:52:01.213Z,1115
2019-05-19T07:53:02.856Z,1155
2019-05-19T07:54:04.266Z,865
2019-05-19T07:55:05.672Z,630
2019-05-19T07:56:07.522Z,585
2019-05-19T07:57:08.925Z,600
2019-05-19T07:58:10.344Z,605
2019-05-19T07:59:11.852Z,600
2019-05-19T08:00:13.261Z,610
2019-05-19T08:01:14.734Z,595
2019-05-19T08:02:16.143Z,1130
2019-05-19T08:03:17.595Z,565
2019-05-19T08:04:19.061Z,520
2019-05-19T08:05:20.857Z,495
2019-05-19T08:06:22.269Z,470
2019-05-19T08:07:23.784Z,450
2019-05-19T08:08:25.190Z,420
2019-05-19T08:09:26.599Z,370
2019-05-19T08:10:28.105Z,355
2019-05-19T08:11:29.524Z,335
2019-05-19T08:12:30.924Z,320
2019-05-19T08:13:32.433Z,320
2019-05-19T08:14:34.242Z,330
2019-05-19T08:15:35.719Z,350
2019-05-19T08:16:37.138Z,390
2019-05-19T08:17:38.575Z,410
2019-05-19T08:18:40.053Z,440
2019-05-19T08:19:41.465Z,450
2019-05-19T08:20:42.872Z,455
2019-05-19T08:21:44.362Z,445
2019-05-19T08:22:45.768Z,435
2019-05-19T08:23:59.939Z,465
2019-05-19T08:24:49.008Z,490
2019-05-19T08:25:50.556Z,520
2019-05-19T08:26:51.979Z,510
2019-05-19T08:28:43.536Z,480
2019-05-19T08:29:45.479Z,550
2019-05-19T08:30:46.899Z,965
2019-05-19T08:31:48.300Z,690
2019-05-19T08:32:50.220Z,720
2019-05-19T08:33:51.540Z,1605
2019-05-19T08:34:52.944Z,1810
2019-05-19T08:35:54.495Z,1680
2019-05-19T08:36:55.915Z,1665
2019-05-19T08:37:57.325Z,1840
2019-05-19T08:38:58.814Z,1650
2019-05-19T08:40:00.238Z,1685
2019-05-19T08:41:01.834Z,1900
2019-05-19T08:42:03.239Z,1725
2019-05-19T08:43:04.781Z,1505
2019-05-19T08:44:06.668Z,1130
2019-05-19T08:45:08.274Z,1175
2019-05-19T08:46:09.688Z,1465
2019-05-19T08:47:11.163Z,1720
2019-05-19T08:48:12.584Z,1530
2019-05-19T08:49:13.986Z,1110
2019-05-19T08:50:15.477Z,1535
2019-05-19T08:51:16.889Z,1045
2019-05-19T08:52:18.301Z,815
2019-05-19T08:53:20.189Z,970
2019-05-19T08:54:21.601Z,715
2019-05-19T08:55:23.095Z,625
2019-05-19T08:56:24.510Z,1005
2019-05-19T08:57:26.118Z,930
2019-05-19T08:58:27.517Z,630
2019-05-19T08:59:29.161Z,785
2019-05-19T09:00:33.562Z,555
2019-05-19T09:01:32.254Z,525
2019-05-19T09:02:33.663Z,540
2019-05-19T09:03:35.334Z,715
2019-05-19T09:04:36.743Z,535
2019-05-19T09:05:38.419Z,530
2019-05-19T09:06:39.839Z,530
2019-05-19T09:07:41.499Z,520
2019-05-19T09:08:43.219Z,520
2019-05-19T09:09:44.793Z,605
2019-05-19T09:10:46.205Z,945
2019-05-19T09:11:47.996Z,680
2019-05-19T09:12:49.637Z,570
2019-05-19T09:13:51.049Z,700
2019-05-19T09:14:52.611Z,510
2019-05-19T09:15:54.048Z,505
2019-05-19T09:16:55.444Z,510
2019-05-19T09:17:57.137Z,505
2019-05-19T09:18:58.554Z,515
2019-05-19T09:20:00.244Z,525
2019-05-19T09:21:01.654Z,525
2019-05-19T09:22:03.309Z,510
2019-05-19T09:23:05.099Z,510
2019-05-19T09:24:06.504Z,500
2019-05-19T09:25:08.034Z,555
2019-05-19T09:26:09.464Z,495
2019-05-19T09:27:10.878Z,490
2019-05-19T09:28:12.513Z,475
2019-05-19T09:29:13.877Z,480
2019-05-19T09:30:15.829Z,485
2019-05-19T09:31:17.256Z,485
2019-05-19T09:32:18.950Z,485
2019-05-19T09:33:20.358Z,490
2019-05-19T09:34:21.913Z,485
2019-05-19T09:35:23.275Z,485
2019-05-19T09:36:24.718Z,485
2019-05-19T09:37:26.872Z,485
2019-05-19T09:38:28.401Z,485
2019-05-19T09:39:29.820Z,480
2019-05-19T09:40:32.245Z,485
2019-05-19T09:41:33.656Z,480
2019-05-19T09:42:35.186Z,480
2019-05-19T09:43:36.596Z,495
2019-05-19T09:44:38.273Z,490
2019-05-19T09:45:39.689Z,495
2019-05-19T09:46:41.778Z,490
2019-05-19T09:47:43.199Z,495
2019-05-19T09:48:44.619Z,510
2019-05-19T09:49:46.024Z,560
2019-05-19T09:50:47.426Z,605
2019-05-19T09:51:48.969Z,625
2019-05-19T09:52:50.385Z,605
2019-05-19T09:53:52.195Z,620
2019-05-19T09:54:53.596Z,635
2019-05-19T09:55:55.142Z,675
2019-05-19T09:56:56.552Z,705
2019-05-19T09:57:58.228Z,960
2019-05-19T09:58:59.659Z,745
2019-05-19T10:00:01.097Z,660
2019-05-19T10:01:03.128Z,590
2019-05-19T10:02:04.557Z,570
2019-05-19T10:03:05.957Z,555
2019-05-19T10:04:07.689Z,575
2019-05-19T10:05:09.098Z,580
2019-05-19T10:06:10.506Z,590
2019-05-19T10:07:12.639Z,720
2019-05-19T10:08:13.630Z,750
2019-05-19T10:09:15.415Z,775
2019-05-19T10:10:16.948Z,800
2019-05-19T10:11:18.382Z,815
2019-05-19T10:12:19.783Z,820
2019-05-19T10:13:21.473Z,710
2019-05-19T10:14:23.283Z,765
2019-05-19T10:15:24.967Z,765
2019-05-19T10:16:26.402Z,770
2019-05-19T10:17:28.497Z,680
2019-05-19T10:18:29.903Z,730
2019-05-19T10:19:31.309Z,735
2019-05-19T10:20:32.989Z,750
2019-05-19T10:21:34.397Z,775
2019-05-19T10:22:35.844Z,785
2019-05-19T10:23:37.515Z,950
2019-05-19T10:24:38.932Z,680
2019-05-19T10:25:40.608Z,670
2019-05-19T10:26:42.012Z,650
2019-05-19T10:27:43.746Z,605
2019-05-19T10:28:45.114Z,595
2019-05-19T10:29:46.836Z,590
2019-05-19T10:30:48.242Z,560
2019-05-19T10:31:49.857Z,535
2019-05-19T10:32:51.646Z,515
2019-05-19T10:33:53.353Z,520
2019-05-19T10:34:54.758Z,510
2019-05-19T10:35:56.821Z,520
2019-05-19T10:36:58.601Z,520
2019-05-19T10:38:00.136Z,520
2019-05-19T10:39:01.572Z,545
2019-05-19T10:40:02.982Z,525
2019-05-19T10:41:04.834Z,520
2019-05-19T10:42:06.038Z,1185
2019-05-19T10:43:07.517Z,500
2019-05-19T10:44:09.234Z,495
2019-05-19T10:45:10.643Z,515
2019-05-19T10:46:12.273Z,515
2019-05-19T10:47:13.688Z,585
2019-05-19T10:48:15.761Z,490
2019-05-19T10:49:17.546Z,445
2019-05-19T10:50:19.277Z,395
2019-05-19T10:51:20.680Z,405
2019-05-19T10:52:22.351Z,430
2019-05-19T10:53:23.763Z,445
2019-05-19T10:54:25.548Z,450
2019-05-19T10:55:35.965Z,465
2019-05-19T10:56:28.458Z,445
2019-05-19T10:57:29.897Z,460
2019-05-19T10:58:31.612Z,450
2019-05-19T10:59:33.400Z,435
2019-05-19T11:00:34.846Z,395
2019-05-19T11:01:36.543Z,425
2019-05-19T11:02:37.951Z,450
2019-05-19T11:03:39.387Z,505
2019-05-19T11:04:41.087Z,500
2019-05-19T11:05:42.701Z,520
2019-05-19T11:06:44.219Z,520
2019-05-19T11:07:45.812Z,510
2019-05-19T11:08:47.238Z,515
2019-05-19T11:09:48.713Z,490
2019-05-19T11:10:50.336Z,505
2019-05-19T11:11:51.736Z,520
2019-05-19T11:12:53.429Z,520
2019-05-19T11:13:54.838Z,520
2019-05-19T11:14:56.528Z,525
2019-05-19T11:15:57.975Z,515
2019-05-19T11:16:59.587Z,480
2019-05-19T11:18:01.391Z,480
2019-05-19T11:19:03.145Z,430
2019-05-19T11:20:04.631Z,445
2019-05-19T11:21:06.471Z,445
2019-05-19T11:22:07.880Z,460
2019-05-19T11:23:09.465Z,485
2019-05-19T11:24:11.256Z,495
2019-05-19T11:25:12.963Z,485
2019-05-19T11:26:14.420Z,430
2019-05-19T11:27:16.061Z,380
2019-05-19T11:28:17.476Z,320
2019-05-19T11:29:19.169Z,320
2019-05-19T11:30:20.703Z,365
2019-05-19T11:31:22.599Z,425
2019-05-19T11:32:24.575Z,455
2019-05-19T11:33:26.023Z,475
2019-05-19T11:34:27.826Z,490
2019-05-19T11:35:30.073Z,500
2019-05-19T11:36:31.565Z,500
2019-05-19T11:37:33.931Z,505
2019-05-19T11:38:35.332Z,520
2019-05-19T11:39:37.475Z,545
2019-05-19T11:40:39.054Z,600
2019-05-19T11:41:40.711Z,560
2019-05-19T11:42:42.500Z,625
2019-05-19T11:43:44.599Z,605
2019-05-19T11:44:46.401Z,680
2019-05-19T11:45:48.158Z,720
2019-05-19T11:46:49.557Z,670
2019-05-19T11:47:51.599Z,660
2019-05-19T11:48:53.029Z,750
2019-05-19T11:49:54.576Z,715
2019-05-19T11:50:57.185Z,695
2019-05-19T11:51:58.620Z,545
2019-05-19T11:53:00.020Z,655
2019-05-19T11:54:01.894Z,970
2019-05-19T11:55:03.747Z,790
2019-05-19T11:56:07.338Z,800
2019-05-19T11:57:06.869Z,830
2019-05-19T11:58:08.423Z,860
2019-05-19T11:59:09.824Z,660
2019-05-19T12:00:11.359Z,590
2019-05-19T12:01:12.809Z,615
2019-05-19T12:02:14.453Z,575
2019-05-19T12:03:15.854Z,545
2019-05-19T12:04:17.529Z,570
2019-05-19T12:05:18.937Z,435
2019-05-19T12:06:20.619Z,625
2019-05-19T12:07:22.039Z,690
2019-05-19T12:08:23.765Z,635
2019-05-19T12:09:25.244Z,795
2019-05-19T12:10:27.079Z,815
2019-05-19T12:11:28.616Z,745
2019-05-19T12:12:30.281Z,950
2019-05-19T12:13:34.652Z,1280
2019-05-19T12:14:33.299Z,1275
2019-05-19T12:15:34.833Z,1095
2019-05-19T12:16:36.554Z,750
2019-05-19T12:17:38.395Z,575
2019-05-19T12:18:39.807Z,375
2019-05-19T12:19:41.208Z,375
2019-05-19T12:20:42.821Z,375
2019-05-19T12:21:44.369Z,390
2019-05-19T12:22:45.986Z,525
2019-05-19T12:23:47.873Z,580
2019-05-19T12:24:49.670Z,590
2019-05-19T12:25:51.095Z,595
2019-05-19T12:26:52.563Z,605
2019-05-19T12:27:54.136Z,600
2019-05-19T12:28:55.553Z,605
2019-05-19T12:29:57.003Z,740
2019-05-19T12:30:58.666Z,740
2019-05-19T12:32:00.113Z,890
2019-05-19T12:33:01.962Z,650
2019-05-19T12:34:03.124Z,635
2019-05-19T12:35:04.832Z,590
2019-05-19T12:36:06.300Z,500
2019-05-19T12:37:07.916Z,440
2019-05-19T12:38:09.736Z,400
2019-05-19T12:39:12.486Z,360
2019-05-19T12:40:14.269Z,325
2019-05-19T12:41:15.687Z,310
2019-05-19T12:42:17.377Z,280
2019-05-19T12:43:18.827Z,250
2019-05-19T12:44:20.228Z,225
2019-05-19T12:45:21.931Z,205
2019-05-19T12:46:23.340Z,180
2019-05-19T12:47:24.991Z,160
2019-05-19T12:48:26.397Z,140
2019-05-19T12:49:28.071Z,125
2019-05-19T12:50:29.525Z,115
2019-05-19T12:51:31.542Z,110
2019-05-19T12:52:32.902Z,115
2019-05-19T12:53:34.447Z,105
2019-05-19T12:54:36.243Z,90
2019-05-19T12:55:37.939Z,75
2019-05-19T12:56:40.177Z,65
2019-05-19T12:57:41.158Z,55
2019-05-19T12:58:42.670Z,50
2019-05-19T12:59:44.455Z,40
2019-05-19T13:00:45.888Z,35
2019-05-19T13:01:47.783Z,35
2019-05-19T13:02:49.209Z,30
2019-05-19T13:03:50.691Z,30
2019-05-19T13:05:04.470Z,30
2019-05-19T13:05:53.571Z,30
2019-05-19T13:06:54.974Z,30
2019-05-19T13:07:56.720Z,35
2019-05-19T13:08:58.523Z,35
2019-05-19T13:10:00.163Z,35
2019-05-19T13:11:01.556Z,35
2019-05-19T13:12:04.266Z,35
2019-05-19T13:13:05.664Z,40
2019-05-19T13:14:07.351Z,40
2019-05-19T13:15:08.762Z,45
2019-05-19T13:16:10.439Z,45
2019-05-19T13:17:11.844Z,45
2019-05-19T13:18:13.524Z,50
2019-05-19T13:19:14.929Z,50
2019-05-19T13:20:16.632Z,50
2019-05-19T13:21:19.330Z,55
2019-05-19T13:22:20.701Z,55
2019-05-19T13:23:22.364Z,55
2019-05-19T13:24:23.777Z,55
2019-05-19T13:25:25.180Z,55
2019-05-19T13:26:27.008Z,60
2019-05-19T13:27:28.415Z,65
2019-05-19T13:28:29.832Z,65
2019-05-19T13:29:31.422Z,60
2019-05-19T13:30:32.834Z,50
2019-05-19T13:31:34.307Z,35
2019-05-19T13:32:35.941Z,20
2019-05-19T13:33:37.355Z,15
2019-05-19T13:34:38.761Z,15
2019-05-19T13:35:40.487Z,15
2019-05-19T13:36:41.883Z,15
2019-05-19T13:37:43.227Z,15
2019-05-19T13:38:44.791Z,20
2019-05-19T13:39:46.195Z,20
2019-05-19T13:40:47.593Z,25
2019-05-19T13:41:49.111Z,25
2019-05-19T13:42:50.569Z,25
2019-05-19T13:43:52.199Z,25
2019-05-19T13:44:53.599Z,25
2019-05-19T13:45:55.285Z,30
2019-05-19T13:46:56.690Z,30
2019-05-19T13:47:59.392Z,30
2019-05-19T13:49:00.845Z,35
2019-05-19T13:50:02.481Z,35
2019-05-19T13:51:03.883Z,35
2019-05-19T13:52:05.567Z,35
2019-05-19T13:53:06.970Z,35
2019-05-19T13:54:08.481Z,35
2019-05-19T13:55:09.879Z,35
2019-05-19T13:56:11.531Z,35
2019-05-19T13:57:13.003Z,35
2019-05-19T13:58:14.409Z,35
2019-05-19T13:59:15.819Z,40
2019-05-19T14:00:17.520Z,40
2019-05-19T14:01:28.049Z,40
2019-05-19T14:02:20.966Z,40
2019-05-19T14:03:22.374Z,40
2019-05-19T14:04:23.871Z,45
2019-05-19T14:05:25.299Z,45
2019-05-19T14:06:26.966Z,45
2019-05-19T14:07:28.362Z,45
2019-05-19T14:08:30.063Z,45
2019-05-19T14:09:31.464Z,45
2019-05-19T14:10:33.177Z,45
2019-05-19T14:11:34.581Z,50
2019-05-19T14:12:36.263Z,50
2019-05-19T14:13:37.658Z,50
2019-05-19T14:14:39.304Z,55
2019-05-19T14:15:40.710Z,55
2019-05-19T14:16:42.391Z,55
2019-05-19T14:17:43.799Z,60
2019-05-19T14:18:45.474Z,65
2019-05-19T14:19:46.880Z,65
2019-05-19T14:20:48.563Z,70
2019-05-19T14:21:49.976Z,75
2019-05-19T14:22:52.073Z,75
2019-05-19T14:23:53.476Z,80
2019-05-19T14:24:55.146Z,80
2019-05-19T14:25:56.555Z,75
2019-05-19T14:26:58.230Z,80
2019-05-19T14:27:59.644Z,85
2019-05-19T14:29:01.316Z,90